Latest Weather Observations for Lucinda

IDQ60801

Issued at 1:05 pm EST Thursday 31 July 2014 (issued every 30 minutes, with the page automatically refreshed every 10 minutes)

About weather observations | Map of weather stations | Latest weather observations for QLD | Other Formats
Station Details ID: 032141 Name: LUCINDA POINT Lat: -18.52 Lon: 146.39 Height: 10.0 m
Data from the previous 72 hours. | See also: Recent months for locations in Queensland
Date/Time
EST
Temp
°C
App
Temp
°C
Dew
Point
Rel
Hum
%
Delta-T
°C
Wind Press
QNH
hPa
Press
MSL
hPa
Rain
since 9 am
mm
Dir
 
Spd
km/h
Gust
km/h
Spd
kts
Gust
kts
31/01:00pm 22.2 22.2 15.1 64 4.2 S 9 13 5 7 1017.3 1017.3 0.2
31/12:30pm 22.1 21.5 15.7 67 3.8 S 13 19 7 10 1017.8 - 0.2
31/12:00pm 21.2 20.4 16.2 73 3.0 S 15 17 8 9 1018.3 1018.3 0.2
31/11:30am 21.4 20.8 16.6 74 2.9 S 15 19 8 10 1018.7 - 0.2
31/11:00am 21.2 20.7 17.0 77 2.6 S 15 20 8 11 1019.1 1019.1 0.0
31/10:30am 21.1 19.7 17.1 78 2.4 S 20 24 11 13 1019.3 - 0.0
31/10:00am 21.0 20.8 16.8 77 2.5 S 13 19 7 10 1019.5 1019.5 0.0
31/09:30am 20.5 22.3 17.3 82 2.0 WSW 4 13 2 7 1019.5 - 0.0
31/09:00am 19.9 21.9 18.7 93 0.7 SSW 6 11 3 6 1019.4 1019.4 1.2
31/08:30am 19.2 19.0 17.7 91 0.9 WSW 15 17 8 9 1019.1 - 0.4
31/08:00am 19.3 18.8 17.8 91 0.9 WSW 17 17 9 9 1018.9 1018.9 0.4
31/07:30am 19.4 18.9 17.9 91 0.9 WSW 17 20 9 11 1018.7 - 0.4
31/07:00am 19.2 18.6 17.5 90 1.0 WSW 17 19 9 10 1018.3 1018.3 0.4
31/06:30am 19.9 20.2 17.9 88 1.2 WSW 13 13 7 7 1018.2 - 0.4
31/06:00am 21.0 21.4 16.2 74 2.9 SSW 9 13 5 7 1017.9 1017.9 0.4
31/05:30am 21.2 21.8 15.7 71 3.3 SSE 7 13 4 7 1017.7 - 0.4
31/05:00am 21.1 20.5 15.6 71 3.3 SE 13 22 7 12 1017.5 1017.5 0.4
31/04:30am 21.2 21.8 16.8 76 2.7 SSE 9 20 5 11 1017.4 - 0.4
31/04:00am 20.2 20.8 17.6 85 1.6 SW 11 17 6 9 1017.6 1017.6 0.4
31/03:30am 19.6 18.8 17.9 90 1.0 WSW 19 24 10 13 1017.8 - 0.4
31/03:00am 20.2 20.5 17.8 86 1.5 WSW 13 17 7 9 1017.7 1017.7 0.4
31/02:30am 20.3 20.7 16.3 78 2.4 SW 9 11 5 6 1017.8 - 0.4
31/02:00am 21.8 22.2 16.3 71 3.3 SE 9 13 5 7 1018.1 1018.1 0.4
31/01:30am 20.8 21.6 17.4 81 2.1 SSE 9 17 5 9 1018.2 - 0.4
31/01:00am 20.1 20.4 18.0 88 1.3 SW 13 17 7 9 1018.5 1018.5 0.4
31/12:30am 21.0 21.9 16.6 76 2.7 SW 7 11 4 6 1018.7 - 0.4
31/12:00am 22.1 21.8 16.4 70 3.4 SE 13 17 7 9 1018.8 1018.8 0.4
 
Date/Time
EST
Temp
°C
App
Temp
°C
Dew
Point
Rel
Hum
%
Delta-T
°C
Wind Press
QNH
hPa
Press
MSL
hPa
Rain
since 9 am
mm
Dir
 
Spd
km/h
Gust
km/h
Spd
kts
Gust
kts
30/11:30pm 22.1 22.2 16.4 70 3.5 SE 11 19 6 10 1018.7 - 0.4
30/11:00pm 22.1 22.2 16.6 71 3.3 SE 11 17 6 9 1018.9 1018.9 0.4
30/10:30pm 22.2 22.1 16.9 72 3.2 ESE 13 19 7 10 1019.2 - 0.4
30/10:00pm 22.1 21.9 16.6 71 3.3 SE 13 20 7 11 1019.2 1019.2 0.4
30/09:30pm 22.1 21.8 16.4 70 3.5 ESE 13 19 7 10 1019.0 - 0.4
30/09:00pm 22.1 21.9 16.6 71 3.3 SE 13 20 7 11 1019.0 1019.0 0.4
30/08:30pm 22.2 22.0 16.7 71 3.4 SE 13 22 7 12 1018.9 - 0.4
30/08:00pm 22.2 22.7 16.5 70 3.5 ESE 9 15 5 8 1018.8 1018.8 0.4
30/07:30pm 22.2 22.3 16.5 70 3.5 SE 11 20 6 11 1018.5 - 0.4
30/07:00pm 22.0 22.3 16.9 73 3.1 SE 11 17 6 9 1018.3 1018.3 0.4
30/06:30pm 22.1 22.8 17.0 73 3.1 SE 9 15 5 8 1017.9 - 0.4
30/06:00pm 22.1 22.0 17.0 73 3.1 SE 13 19 7 10 1017.8 1017.8 0.4
30/05:30pm 22.2 22.1 16.9 72 3.2 SE 13 22 7 12 1017.7 - 0.4
30/05:00pm 22.3 22.2 17.0 72 3.2 SE 13 24 7 13 1017.6 1017.6 0.4
30/04:30pm 22.2 21.7 16.9 72 3.2 SE 15 24 8 13 1017.5 - 0.4
30/04:00pm 22.6 22.4 16.6 69 3.7 ESE 13 20 7 11 1017.4 1017.4 0.4
30/03:30pm 22.7 22.8 16.5 68 3.8 SSE 11 20 6 11 1017.3 - 0.4
30/03:00pm 22.8 22.2 16.6 68 3.8 SE 15 26 8 14 1017.5 1017.5 0.4
30/02:30pm 23.1 22.5 16.6 67 4.0 SSE 15 26 8 14 1017.7 - 0.2
30/02:00pm 22.9 22.5 16.2 66 4.1 SSE 13 20 7 11 1018.1 1018.1 0.2
30/01:30pm 22.4 22.1 16.4 69 3.6 SSE 13 22 7 12 1018.4 - 0.2
30/01:00pm 22.5 22.0 17.0 71 3.4 SSE 15 20 8 11 1018.8 1018.8 0.2
30/12:30pm 22.1 21.2 16.8 72 3.2 SE 17 22 9 12 1019.2 - 0.2
30/12:00pm 21.2 19.2 17.4 79 2.3 S 24 30 13 16 1019.7 1019.7 0.2
30/11:30am 21.4 18.9 17.0 76 2.7 S 26 30 14 16 1020.1 - 0.0
30/11:00am 21.0 18.7 16.6 76 2.7 S 24 30 13 16 1020.5 1020.5 0.0
30/10:30am 21.2 18.9 16.6 75 2.8 SSE 24 32 13 17 1020.8 - 0.0
30/10:00am 21.4 20.0 17.0 76 2.7 SSE 20 26 11 14 1020.9 1020.9 0.0
30/09:30am 21.2 19.8 17.0 77 2.6 SSE 20 28 11 15 1020.9 - 0.0
30/09:00am 21.4 20.6 17.2 77 2.6 SSE 17 22 9 12 1020.7 1020.7 0.0
30/08:30am 21.2 20.7 17.8 81 2.1 S 17 24 9 13 1020.4 - 0.0
30/08:00am 21.1 21.1 17.3 79 2.3 SSE 13 17 7 9 1020.2 1020.2 0.0
30/07:30am 19.8 19.3 16.8 83 1.8 SSW 15 19 8 10 1020.1 - 0.0
30/07:00am 19.6 18.1 16.3 81 2.0 SW 19 20 10 11 1020.0 1020.0 0.0
30/06:30am 19.7 18.2 16.2 80 2.1 SW 19 22 10 12 1019.7 - 0.0
30/06:00am 19.5 18.2 15.8 79 2.2 SW 17 20 9 11 1019.4 1019.4 0.0
30/05:30am 19.6 18.6 15.7 78 2.3 SW 15 19 8 10 1019.2 - 0.0
30/05:00am 19.7 18.0 15.8 78 2.3 SW 19 20 10 11 1019.1 1019.1 0.0
30/04:30am 19.5 18.1 15.6 78 2.3 SW 17 19 9 10 1018.8 - 0.0
30/04:00am 19.5 18.5 15.6 78 2.3 WSW 15 17 8 9 1018.6 1018.6 0.0
30/03:30am 19.8 18.7 15.4 76 2.6 SW 15 17 8 9 1018.8 - 0.0
30/03:00am 19.8 18.6 16.1 79 2.2 SW 17 19 9 10 1019.0 1019.0 0.0
30/02:30am 19.7 18.4 15.8 78 2.3 SW 17 19 9 10 1019.1 - 0.0
30/02:00am 20.3 20.1 15.7 75 2.7 SW 11 17 6 9 1019.4 1019.4 0.0
30/01:30am 21.8 21.7 17.0 74 2.9 E 13 17 7 9 1019.5 - 0.0
30/01:00am 21.8 21.3 17.0 74 2.9 E 15 26 8 14 1019.6 1019.6 0.0
30/12:30am 22.1 20.5 15.9 68 3.7 E 19 20 10 11 1019.7 - 0.0
30/12:00am 22.2 20.6 16.0 68 3.7 ESE 19 22 10 12 1019.9 1019.9 0.0
 
Date/Time
EST
Temp
°C
App
Temp
°C
Dew
Point
Rel
Hum
%
Delta-T
°C
Wind Press
QNH
hPa
Press
MSL
hPa
Rain
since 9 am
mm
Dir
 
Spd
km/h
Gust
km/h
Spd
kts
Gust
kts
29/11:30pm 22.2 20.5 15.8 67 3.8 ESE 19 20 10 11 1020.1 - 0.0
29/11:00pm 22.4 21.4 15.7 66 4.0 ESE 15 20 8 11 1020.3 1020.3 0.0
29/10:30pm 22.3 21.9 15.2 64 4.2 SE 11 19 6 10 1020.5 - 0.0
29/10:00pm 22.4 22.1 15.5 65 4.1 SE 11 17 6 9 1020.6 1020.6 0.0
29/09:30pm 22.3 22.7 16.3 69 3.6 SE 9 15 5 8 1020.5 - 0.0
29/09:00pm 22.0 22.1 16.5 71 3.3 SE 11 20 6 11 1020.4 1020.4 0.0
29/08:30pm 21.8 21.4 16.3 71 3.3 S 13 15 7 8 1020.3 - 0.0
29/08:00pm 21.9 22.2 16.0 69 3.5 SSE 9 13 5 7 1020.1 1020.1 0.0
29/07:30pm 22.0 22.2 15.8 68 3.7 SSE 9 13 5 7 1019.9 - 0.0
29/07:00pm 22.0 22.2 15.8 68 3.7 SE 9 13 5 7 1019.6 1019.6 0.0
29/06:30pm 22.1 21.5 15.7 67 3.8 SE 13 17 7 9 1019.5 - 0.0
29/06:00pm 21.9 21.5 15.3 66 3.9 SE 11 17 6 9 1019.2 1019.2 0.0
29/05:30pm 22.3 21.2 15.2 64 4.2 ESE 15 20 8 11 1019.0 - 0.0
29/05:00pm 22.5 22.4 14.9 62 4.5 ESE 9 15 5 8 1018.7 1018.7 0.0
29/04:30pm 22.8 22.9 15.6 64 4.3 SE 9 13 5 7 1018.5 - 0.0
29/04:00pm 22.5 22.6 15.4 64 4.2 SSE 9 13 5 7 1018.4 1018.4 0.0
29/03:30pm 22.7 22.6 15.0 61 4.6 SSE 9 11 5 6 1018.4 - 0.0
29/03:00pm 22.6 22.5 15.0 62 4.5 S 9 11 5 6 1018.6 1018.6 0.0
29/02:30pm 22.8 23.1 14.9 61 4.7 S 7 9 4 5 1018.7 - 0.0
29/02:00pm 23.0 23.4 15.3 62 4.6 SSW 7 11 4 6 1019.1 1019.1 0.0
29/01:30pm 22.3 22.4 15.4 65 4.1 S 9 11 5 6 1019.5 - 0.0
29/01:00pm 21.9 21.5 15.3 66 3.9 SSW 11 13 6 7 1019.9 1019.9 0.0
29/12:30pm 21.8 21.9 15.4 67 3.8 S 9 15 5 8 1020.2 - 0.0
29/12:00pm 21.6 20.5 15.4 68 3.7 S 15 19 8 10 1020.8 1020.8 0.0
29/11:30am 21.3 20.2 15.4 69 3.5 S 15 20 8 11 1021.1 - 0.0
29/11:00am 21.6 20.6 15.7 69 3.5 S 15 22 8 12 1021.4 1021.4 0.0
29/10:30am 21.5 20.9 15.6 69 3.5 S 13 17 7 9 1021.6 - 0.0
29/10:00am 21.8 21.2 15.6 68 3.7 S 13 17 7 9 1021.6 1021.6 0.0
29/09:30am 21.5 20.9 15.6 69 3.5 S 13 17 7 9 1021.6 - 0.0
29/09:00am 22.3 22.4 15.4 65 4.1 S 9 15 5 8 1021.4 1021.4 0.0
29/08:30am 22.5 21.4 13.0 55 5.4 S 11 17 6 9 1021.2 - 0.0
29/08:00am 22.4 21.1 12.6 54 5.6 SSE 11 17 6 9 1020.9 1020.9 0.0
29/07:30am 22.0 20.7 13.6 59 4.9 SSE 13 20 7 11 1020.7 - 0.0
29/07:00am 21.5 20.6 13.7 61 4.5 SSE 11 17 6 9 1020.3 1020.3 0.0
29/06:30am 21.3 21.0 14.5 65 4.0 SSE 9 13 5 7 1020.1 - 0.0
29/06:00am 21.4 21.1 14.3 64 4.1 SSE 9 15 5 8 1019.9 1019.9 0.0
29/05:30am 21.4 21.2 14.8 66 3.9 SSE 9 13 5 7 1020.0 - 0.0
29/05:00am 21.5 21.5 15.3 68 3.7 SSE 9 13 5 7 1019.7 1019.7 0.0
29/04:30am 20.3 21.2 16.7 80 2.2 SW 7 11 4 6 1019.5 - 0.0
29/04:00am 19.3 19.6 17.1 87 1.3 WSW 11 13 6 7 1019.5 1019.5 0.0
29/03:30am 19.3 18.6 16.5 84 1.7 WSW 15 17 8 9 1019.6 - 0.0
29/03:00am 19.7 19.9 16.7 83 1.8 SW 11 13 6 7 1019.7 1019.7 0.0
29/02:30am 19.7 19.8 16.5 82 1.9 WSW 11 13 6 7 1019.6 - 0.0
29/02:00am 19.9 19.3 16.7 82 1.9 SW 15 17 8 9 1019.8 1019.8 0.0
29/01:30am 19.6 19.1 17.0 85 1.6 SW 15 17 8 9 1019.9 - 0.0
29/01:00am 19.3 19.1 17.6 90 1.0 WSW 15 17 8 9 1020.1 1020.1 0.0
29/12:30am 19.5 19.4 17.8 90 1.0 WSW 15 17 8 9 1020.3 - 0.0
29/12:00am 19.7 18.7 16.5 82 1.9 WSW 17 17 9 9 1020.3 1020.3 0.0
 
Date/Time
EST
Temp
°C
App
Temp
°C
Dew
Point
Rel
Hum
%
Delta-T
°C
Wind Press
QNH
hPa
Press
MSL
hPa
Rain
since 9 am
mm
Dir
 
Spd
km/h
Gust
km/h
Spd
kts
Gust
kts
28/11:30pm 22.0 21.7 14.4 62 4.5 S 9 11 5 6 1020.4 - 0.0
28/11:00pm 21.8 22.3 15.6 68 3.7 S 7 9 4 5 1020.4 1020.4 0.0
28/10:30pm 21.8 21.8 16.3 71 3.3 S 11 13 6 7 1020.4 - 0.0
28/10:00pm 21.9 22.3 16.2 70 3.4 S 9 11 5 6 1020.4 1020.4 0.0
28/09:30pm 22.4 22.7 15.0 63 4.4 SE 7 13 4 7 1020.4 - 0.0
28/09:00pm 22.5 21.0 15.4 64 4.2 ESE 17 22 9 12 1020.4 1020.4 0.0
28/08:30pm 22.6 21.9 16.4 68 3.8 ESE 15 22 8 12 1020.4 - 0.0
28/08:00pm 22.5 20.8 16.3 68 3.8 ESE 20 26 11 14 1020.3 1020.3 0.0
28/07:30pm 22.4 21.1 15.7 66 4.0 ESE 17 24 9 13 1019.9 - 0.0
28/07:00pm 22.5 22.3 15.8 66 4.0 ESE 11 17 6 9 1019.7 1019.7 0.0
28/06:30pm 22.6 20.7 15.2 63 4.4 E 19 24 10 13 1019.4 - 0.0
28/06:00pm 22.6 21.1 15.2 63 4.4 ESE 17 24 9 13 1019.2 1019.2 0.0
28/05:30pm 22.5 21.3 15.1 63 4.4 ESE 15 24 8 13 1018.9 - 0.0
28/05:00pm 22.6 21.1 15.2 63 4.4 ESE 17 24 9 13 1018.7 1018.7 0.0
28/04:30pm 22.6 21.2 16.6 69 3.7 SE 19 24 10 13 1018.6 - 0.0
28/04:00pm 22.2 21.0 16.2 69 3.6 SE 17 24 9 13 1018.5 1018.5 0.0
28/03:30pm 22.4 21.4 16.7 70 3.5 SE 17 24 9 13 1018.6 - 0.0
28/03:00pm 22.1 20.8 15.9 68 3.7 SE 17 22 9 12 1018.8 1018.8 0.0
28/02:30pm 22.4 21.3 16.4 69 3.6 SE 17 22 9 12 1019.1 - 0.0
28/02:00pm 22.4 21.4 16.7 70 3.5 SE 17 24 9 13 1019.4 1019.4 0.0
28/01:30pm 22.0 20.7 16.7 72 3.2 S 19 22 10 12 1019.8 - 0.0

Other Formats:

Comma delimited format used in spreadsheet applications
http://www.bom.gov.au/fwo/IDQ60801/IDQ60801.94295.axf

JavaScript Object Notation format (JSON) in row-major order
http://www.bom.gov.au/fwo/IDQ60801/IDQ60801.94295.json